Time;durP1;ratioP1;P1;durP2;ratioP2;P2;SDS_P1;SDS_P2;PMS_P1;PMS_P2;Temp;Humidity;BMP_temperature;BMP_pressure;BME280_temperature;BME280_humidity;BME280_pressure;Samples;Min_cycle;Max_cycle;Signal;HPM_P1;HPM_P2
2022/11/15 00:02:07;;;;;;;58.33;9.73;;;5.20;99.90;;;;;;5026821;28;20184;-60
2022/11/15 00:04:33;;;;;;;70.13;10.20;;;5.10;99.90;;;;;;5029603;28;22297;-60
2022/11/15 00:06:58;;;;;;;51.47;9.93;;;5.10;99.90;;;;;;5028895;28;20847;-60
2022/11/15 00:09:24;;;;;;;109.23;12.07;;;5.10;99.90;;;;;;5030551;28;20180;-61
2022/11/15 00:11:51;;;;;;;50.23;9.37;;;5.10;99.90;;;;;;5027224;28;20184;-60
2022/11/15 00:14:16;;;;;;;64.00;8.87;;;5.10;99.90;;;;;;5033351;28;20253;-60
2022/11/15 00:16:43;;;;;;;115.03;11.53;;;5.00;99.90;;;;;;5021141;28;20825;-60
2022/11/15 00:19:09;;;;;;;84.37;12.07;;;5.00;99.90;;;;;;5028714;28;20426;-60
2022/11/15 00:21:34;;;;;;;53.37;10.83;;;5.00;99.90;;;;;;5029630;28;20444;-61
2022/11/15 00:24:00;;;;;;;59.23;10.87;;;5.00;99.90;;;;;;5028456;28;20176;-61
2022/11/15 00:26:25;;;;;;;158.47;12.93;;;5.00;99.90;;;;;;5023046;28;20265;-61
2022/11/15 00:28:52;;;;;;;87.70;11.30;;;5.10;99.90;;;;;;5024362;28;20726;-60
2022/11/15 00:31:18;;;;;;;54.67;12.60;;;5.10;99.90;;;;;;5025632;28;21746;-60
2022/11/15 00:33:45;;;;;;;128.37;13.17;;;5.10;99.90;;;;;;5026371;28;20450;-61
2022/11/15 00:36:11;;;;;;;77.40;12.90;;;5.10;99.90;;;;;;5027476;28;20340;-59
2022/11/15 00:38:38;;;;;;;72.47;13.50;;;5.10;99.90;;;;;;5028728;28;20956;-60
2022/11/15 00:41:05;;;;;;;62.90;12.43;;;5.10;99.90;;;;;;5029825;28;20529;-60
2022/11/15 00:43:32;;;;;;;77.00;13.90;;;5.10;99.90;;;;;;5027319;28;20439;-61
2022/11/15 00:45:57;;;;;;;72.83;11.70;;;5.10;99.90;;;;;;5028093;28;20458;-60
2022/11/15 00:48:23;;;;;;;64.13;12.60;;;5.10;99.90;;;;;;5028341;28;20446;-60
2022/11/15 00:50:49;;;;;;;37.27;9.30;;;5.10;99.90;;;;;;5020971;28;20250;-60
2022/11/15 00:53:16;;;;;;;28.23;8.53;;;5.10;99.90;;;;;;5031309;28;20602;-60
2022/11/15 00:55:41;;;;;;;25.63;7.93;;;5.00;99.90;;;;;;5032228;28;20554;-62
2022/11/15 00:58:07;;;;;;;35.27;8.30;;;5.00;99.90;;;;;;5032013;28;20459;-60
2022/11/15 01:00:33;;;;;;;16.70;7.70;;;5.00;99.90;;;;;;5021338;28;20702;-60
2022/11/15 01:03:00;;;;;;;12.30;6.40;;;5.00;99.90;;;;;;5027231;28;20188;-63
2022/11/15 01:05:26;;;;;;;21.30;7.20;;;5.00;99.90;;;;;;5024953;28;20180;-59
2022/11/15 01:07:52;;;;;;;19.60;6.93;;;4.90;99.90;;;;;;5025544;28;20431;-60
2022/11/15 01:10:18;;;;;;;16.20;6.73;;;4.90;99.90;;;;;;5026125;28;20266;-60
2022/11/15 01:12:43;;;;;;;15.77;7.50;;;4.90;99.90;;;;;;5030423;28;20462;-60
2022/11/15 01:15:09;;;;;;;15.03;7.87;;;4.80;99.90;;;;;;5028470;28;20182;-60
2022/11/15 01:17:35;;;;;;;60.50;11.20;;;4.80;99.90;;;;;;5024878;28;20282;-60
2022/11/15 01:20:00;;;;;;;39.50;10.33;;;4.80;99.90;;;;;;5025568;28;20184;-59
2022/11/15 01:22:26;;;;;;;17.83;9.40;;;4.80;99.90;;;;;;5026627;28;20634;-59
2022/11/15 01:24:52;;;;;;;17.93;9.53;;;4.70;99.90;;;;;;5030322;28;20669;-60
2022/11/15 01:27:17;;;;;;;29.63;9.60;;;4.70;99.90;;;;;;5024698;28;20200;-60
2022/11/15 01:29:43;;;;;;;21.47;9.07;;;4.70;99.90;;;;;;5024739;28;20230;-63
2022/11/15 01:32:08;;;;;;;25.07;9.23;;;4.70;99.90;;;;;;5027286;28;20176;-60
2022/11/15 01:34:34;;;;;;;35.10;8.40;;;4.70;99.90;;;;;;5028003;28;20214;-60
2022/11/15 01:37:00;;;;;;;21.80;7.13;;;4.70;99.90;;;;;;5020023;28;20207;-59
2022/11/15 01:39:26;;;;;;;38.40;8.60;;;4.70;99.90;;;;;;5027083;28;20180;-60
2022/11/15 01:41:52;;;;;;;28.80;11.93;;;4.70;99.90;;;;;;5029225;28;20182;-60
2022/11/15 01:44:47;;;;;;;73.10;8.40;;;4.70;99.90;;;;;;5026954;28;20537;-61
2022/11/15 01:47:20;;;;;;;34.23;5.83;;;4.70;99.90;;;;;;5023173;28;20204;-60
2022/11/15 01:50:00;;;;;;;22.80;6.03;;;4.60;99.90;;;;;;5021283;28;20492;-60
2022/11/15 01:52:28;;;;;;;24.40;7.00;;;4.60;99.90;;;;;;5028263;28;20441;-60
2022/11/15 01:55:05;;;;;;;28.40;7.03;;;4.50;99.90;;;;;;5027319;28;20473;-60
2022/11/15 01:57:31;;;;;;;27.90;5.93;;;4.60;99.90;;;;;;5020178;28;21124;-59
2022/11/15 02:00:00;;;;;;;65.37;7.70;;;4.50;99.90;;;;;;5027924;28;21081;-60
2022/11/15 02:02:25;;;;;;;50.23;7.13;;;4.50;99.90;;;;;;5028113;28;20477;-62
2022/11/15 02:04:51;;;;;;;81.53;7.90;;;4.50;99.90;;;;;;5023181;28;21091;-60
2022/11/15 02:07:19;;;;;;;57.87;7.13;;;4.50;99.90;;;;;;5029612;28;20196;-59
2022/11/15 02:09:46;;;;;;;26.47;5.93;;;4.50;99.90;;;;;;5036600;28;20192;-60
2022/11/15 02:12:16;;;;;;;35.10;6.47;;;4.40;99.90;;;;;;5027935;28;20442;-59
2022/11/15 02:14:45;;;;;;;27.10;6.80;;;4.40;99.90;;;;;;5026524;28;20473;-59
2022/11/15 02:17:17;;;;;;;37.63;7.90;;;4.40;99.90;;;;;;5025415;28;20541;-59
2022/11/15 02:20:36;;;;;;;45.90;8.30;;;4.40;99.90;;;;;;5033601;28;20417;-61
2022/11/15 02:23:19;;;;;;;34.17;9.20;;;4.40;99.90;;;;;;5031720;28;21005;-59
2022/11/15 02:26:12;;;;;;;34.27;8.63;;;4.40;99.90;;;;;;5020437;28;20438;-60
2022/11/15 02:29:25;;;;;;;41.07;8.87;;;4.40;99.90;;;;;;5030792;28;20464;-59
2022/11/15 02:31:59;;;;;;;38.70;8.70;;;4.40;99.90;;;;;;5027643;28;20435;-61
2022/11/15 02:34:28;;;;;;;60.67;9.60;;;4.40;99.90;;;;;;5027371;28;20987;-62
2022/11/15 02:37:11;;;;;;;42.47;7.90;;;4.40;99.90;;;;;;5031386;28;20469;-61
2022/11/15 02:39:56;;;;;;;18.73;5.40;;;4.40;99.90;;;;;;5025421;28;20442;-60
2022/11/15 02:45:27;;;;;;;14.13;5.13;;;4.40;99.90;;;;;;5028415;28;20489;-61
2022/11/15 02:47:56;;;;;;;38.73;5.93;;;4.40;99.90;;;;;;5025895;28;20438;-61
2022/11/15 02:50:27;;;;;;;19.43;5.57;;;4.30;99.90;;;;;;5027612;28;20525;-61
2022/11/15 02:52:52;;;;;;;7.20;4.93;;;4.30;99.90;;;;;;5031810;28;20847;-59
2022/11/15 02:55:46;;;;;;;9.00;4.97;;;4.30;99.90;;;;;;5030029;28;20438;-59
2022/11/15 02:58:45;;;;;;;13.03;5.30;;;4.30;99.90;;;;;;5023238;28;20233;-59
2022/11/15 03:01:24;;;;;;;9.60;5.00;;;4.30;99.90;;;;;;5027339;28;20440;-59
2022/11/15 03:04:08;;;;;;;5.83;4.50;;;4.30;99.90;;;;;;5030067;28;20438;-60
2022/11/15 03:06:47;;;;;;;8.60;4.70;;;4.30;99.90;;;;;;5024666;28;20458;-60
2022/11/15 03:09:38;;;;;;;12.37;4.03;;;4.40;99.90;;;;;;5028637;28;20419;-60
2022/11/15 03:12:11;;;;;;;11.67;4.90;;;4.30;99.90;;;;;;5025804;28;20444;-60
2022/11/15 03:14:47;;;;;;;9.60;4.77;;;4.30;99.90;;;;;;5025318;28;20458;-60
2022/11/15 03:17:16;;;;;;;16.43;5.00;;;4.40;99.90;;;;;;5025122;28;20492;-60
2022/11/15 03:20:00;;;;;;;10.30;5.40;;;4.30;99.90;;;;;;5025144;28;20513;-62
2022/11/15 03:22:29;;;;;;;12.50;4.60;;;4.30;99.90;;;;;;5026902;28;20482;-60
2022/11/15 03:25:00;;;;;;;14.93;4.60;;;4.30;99.90;;;;;;5028615;28;20994;-60
2022/11/15 03:27:31;;;;;;;4.73;4.00;;;4.30;99.90;;;;;;5027079;28;20516;-60
2022/11/15 03:30:01;;;;;;;8.70;4.40;;;4.30;99.90;;;;;;5019682;28;20439;-59
2022/11/15 03:32:30;;;;;;;4.40;3.80;;;4.30;99.90;;;;;;5028248;28;20442;-61
2022/11/15 03:35:01;;;;;;;6.40;4.30;;;4.30;99.90;;;;;;5031523;28;20466;-60
2022/11/15 03:37:37;;;;;;;5.80;4.50;;;4.20;99.90;;;;;;5028652;28;20462;-61
2022/11/15 03:40:04;;;;;;;5.00;4.20;;;4.20;99.90;;;;;;5025937;28;20475;-61
2022/11/15 03:42:44;;;;;;;4.97;4.10;;;4.30;99.90;;;;;;5028568;28;20473;-59
2022/11/15 03:45:47;;;;;;;5.57;4.33;;;4.30;99.90;;;;;;5025713;28;20784;-60
2022/11/15 03:48:18;;;;;;;7.53;4.27;;;4.30;99.90;;;;;;5017219;28;20446;-60
2022/11/15 03:50:46;;;;;;;5.00;4.07;;;4.30;99.90;;;;;;5026146;28;20529;-60
2022/11/15 03:53:12;;;;;;;6.37;4.60;;;4.30;99.90;;;;;;5028708;28;20478;-61
2022/11/15 03:55:38;;;;;;;5.77;4.63;;;4.30;99.90;;;;;;5027985;28;20419;-61
2022/11/15 03:58:04;;;;;;;7.40;4.60;;;4.30;99.90;;;;;;5025424;28;21000;-60
2022/11/15 04:00:29;;;;;;;5.80;3.93;;;4.30;99.90;;;;;;5029120;28;20219;-60
2022/11/15 04:02:55;;;;;;;5.07;4.37;;;4.30;99.90;;;;;;5029667;28;20563;-59
2022/11/15 04:05:20;;;;;;;7.73;4.53;;;4.30;99.90;;;;;;5026970;28;20762;-59
2022/11/15 04:07:46;;;;;;;5.60;4.67;;;4.20;99.90;;;;;;5027402;28;20601;-60
2022/11/15 04:10:12;;;;;;;4.80;4.23;;;4.20;99.90;;;;;;5030667;28;20180;-60
2022/11/15 04:12:46;;;;;;;8.50;5.67;;;4.20;99.90;;;;;;5025861;28;20235;-62
2022/11/15 04:15:23;;;;;;;6.30;5.03;;;4.20;99.90;;;;;;5021752;28;21197;-60
2022/11/15 04:17:56;;;;;;;8.17;5.63;;;4.20;99.90;;;;;;5029059;28;20849;-61
2022/11/15 04:26:06;;;;;;;52.23;8.17;;;4.20;99.90;;;;;;5021747;28;20461;-60
2022/11/15 04:28:32;;;;;;;9.27;5.00;;;4.20;99.90;;;;;;5029994;28;20440;-60
2022/11/15 04:30:58;;;;;;;8.73;5.50;;;4.20;99.90;;;;;;5028260;28;20442;-59
2022/11/15 04:33:24;;;;;;;5.73;4.63;;;4.20;99.90;;;;;;5028860;28;20199;-60
2022/11/15 04:38:35;;;;;;;19.10;5.57;;;4.20;99.90;;;;;;5029942;28;20183;-60
2022/11/15 04:41:02;;;;;;;11.33;5.90;;;4.20;99.90;;;;;;5025996;28;20436;-60
2022/11/15 04:43:28;;;;;;;13.00;5.67;;;4.20;99.90;;;;;;5025637;28;20488;-59
2022/11/15 04:45:54;;;;;;;9.53;5.50;;;4.20;99.90;;;;;;5026489;28;20461;-59
2022/11/15 04:48:19;;;;;;;11.73;5.87;;;4.20;99.90;;;;;;5030044;28;20921;-60
2022/11/15 04:50:48;;;;;;;8.00;5.60;;;4.10;99.90;;;;;;5049743;22;20219;-54
2022/11/15 04:53:13;;;;;;;10.13;6.00;;;4.20;99.90;;;;;;5022925;28;20269;-55
2022/11/15 04:55:39;;;;;;;15.63;6.40;;;4.10;99.90;;;;;;5027788;28;20760;-56
2022/11/15 04:58:05;;;;;;;16.80;5.93;;;4.20;99.90;;;;;;5027546;28;20183;-56
2022/11/15 05:00:30;;;;;;;14.00;6.83;;;4.20;99.90;;;;;;5015817;28;20192;-56
2022/11/15 05:05:41;;;;;;;24.90;6.53;;;4.20;99.90;;;;;;5007356;28;22216;-59
2022/11/15 05:08:07;;;;;;;21.67;6.73;;;4.20;99.90;;;;;;5006618;28;20805;-63
2022/11/15 05:10:33;;;;;;;14.00;6.80;;;4.20;99.90;;;;;;4999607;28;20455;-58
2022/11/15 05:12:59;;;;;;;17.63;7.40;;;4.20;99.90;;;;;;5003891;28;20255;-56
2022/11/15 05:15:24;;;;;;;14.00;6.97;;;4.20;99.90;;;;;;5004512;28;20522;-58
2022/11/15 05:17:50;;;;;;;11.43;5.77;;;4.20;99.90;;;;;;5005624;28;20263;-56
2022/11/15 05:20:16;;;;;;;8.30;5.80;;;4.20;99.90;;;;;;5005805;28;20682;-56
2022/11/15 05:22:41;;;;;;;8.63;5.13;;;4.20;99.90;;;;;;4994656;28;20188;-53
2022/11/15 05:25:07;;;;;;;10.80;5.33;;;4.20;99.90;;;;;;5001537;28;20184;-55
2022/11/15 05:27:34;;;;;;;10.00;5.07;;;4.20;99.90;;;;;;5005686;28;20180;-57
2022/11/15 05:30:00;;;;;;;10.33;5.77;;;4.20;99.90;;;;;;5005934;28;20519;-65
2022/11/15 05:32:26;;;;;;;9.53;5.77;;;4.20;99.90;;;;;;5006861;28;20854;-56
2022/11/15 05:34:51;;;;;;;7.57;5.57;;;4.20;99.90;;;;;;5002638;28;20208;-57
2022/11/15 05:37:18;;;;;;;11.13;6.03;;;4.20;99.90;;;;;;5001857;28;20447;-56
2022/11/15 05:39:43;;;;;;;7.60;5.77;;;4.20;99.90;;;;;;4987315;28;20260;-53
2022/11/15 05:42:15;;;;;;;6.07;5.33;;;4.20;99.90;;;;;;4984923;28;21118;-57
2022/11/15 05:44:44;;;;;;;10.13;6.33;;;4.20;99.90;;;;;;5000624;28;20200;-59
2022/11/15 05:47:15;;;;;;;9.87;6.13;;;4.20;99.90;;;;;;5005709;28;20438;-60
2022/11/15 05:49:43;;;;;;;10.60;5.97;;;4.30;99.90;;;;;;5004825;28;20411;-59
2022/11/15 05:52:13;;;;;;;22.93;6.43;;;4.20;99.90;;;;;;5007514;28;20439;-60
2022/11/15 05:54:39;;;;;;;7.73;5.23;;;4.20;99.90;;;;;;5018181;28;20481;-60
2022/11/15 05:57:04;;;;;;;8.67;5.93;;;4.30;99.90;;;;;;5013250;28;20427;-60
2022/11/15 05:59:33;;;;;;;8.40;5.17;;;4.20;99.90;;;;;;5013742;28;22213;-61
2022/11/15 06:01:59;;;;;;;8.10;5.67;;;4.30;99.90;;;;;;5009513;28;20176;-60
2022/11/15 06:04:25;;;;;;;5.63;4.70;;;4.20;99.90;;;;;;5012485;28;20913;-60
2022/11/15 06:06:50;;;;;;;5.70;4.70;;;4.20;99.90;;;;;;5013653;28;20176;-61
2022/11/15 06:09:16;;;;;;;8.50;4.77;;;4.20;99.90;;;;;;5014258;28;20419;-60
2022/11/15 06:11:42;;;;;;;6.97;5.70;;;4.20;99.90;;;;;;5012136;28;20196;-61
2022/11/15 06:14:08;;;;;;;5.70;4.80;;;4.20;99.90;;;;;;5005364;28;20204;-63
2022/11/15 06:16:33;;;;;;;6.23;4.30;;;4.20;99.90;;;;;;5017518;28;20203;-58
2022/11/15 06:18:59;;;;;;;6.40;5.20;;;4.20;99.90;;;;;;5024665;28;20180;-61
2022/11/15 06:21:27;;;;;;;4.87;4.07;;;4.30;99.90;;;;;;5010618;28;20254;-61
2022/11/15 06:23:53;;;;;;;5.60;4.77;;;4.30;99.90;;;;;;5005589;28;20231;-60
2022/11/15 06:26:19;;;;;;;6.40;4.57;;;4.30;99.90;;;;;;5005033;28;20427;-63
2022/11/15 06:28:45;;;;;;;5.80;4.77;;;4.30;99.90;;;;;;5004664;28;20435;-60
2022/11/15 06:31:11;;;;;;;6.67;5.20;;;4.30;99.90;;;;;;5011080;28;20212;-60
2022/11/15 06:33:38;;;;;;;7.27;5.20;;;4.30;99.90;;;;;;5008592;28;20193;-62
2022/11/15 06:36:06;;;;;;;10.23;6.20;;;4.30;99.90;;;;;;5005940;28;21264;-62
2022/11/15 06:38:32;;;;;;;7.17;5.13;;;4.30;99.90;;;;;;4998784;28;20441;-59
2022/11/15 06:41:02;;;;;;;9.53;6.00;;;4.30;99.90;;;;;;5024677;28;20443;-63
2022/11/15 06:43:28;;;;;;;7.10;5.13;;;4.30;99.90;;;;;;5003824;28;20423;-60
2022/11/15 06:45:54;;;;;;;5.33;4.83;;;4.30;99.90;;;;;;5002934;28;20428;-60
2022/11/15 06:48:19;;;;;;;5.87;4.67;;;4.40;99.90;;;;;;5007613;28;20192;-60
2022/11/15 06:50:56;;;;;;;5.70;4.77;;;4.40;99.90;;;;;;5007543;28;20238;-61
2022/11/15 06:53:22;;;;;;;5.23;4.23;;;4.40;99.90;;;;;;4997490;28;20576;-60
2022/11/15 06:55:47;;;;;;;5.43;4.37;;;4.40;99.90;;;;;;5002608;28;20431;-62
2022/11/15 06:58:13;;;;;;;5.40;4.23;;;4.40;99.90;;;;;;5006938;28;20437;-60
2022/11/15 07:00:39;;;;;;;6.63;4.63;;;4.50;99.90;;;;;;5005890;28;20614;-61
2022/11/15 07:03:05;;;;;;;6.07;4.80;;;4.50;99.90;;;;;;5006020;28;20168;-60
2022/11/15 07:05:31;;;;;;;6.93;5.20;;;4.50;99.90;;;;;;5007381;28;20431;-61
2022/11/15 07:07:58;;;;;;;8.10;5.80;;;4.50;99.90;;;;;;5007104;28;20260;-59
2022/11/15 07:10:25;;;;;;;8.20;5.87;;;4.60;99.90;;;;;;5000602;28;20439;-60
2022/11/15 07:12:52;;;;;;;9.70;5.87;;;4.60;99.90;;;;;;5004666;28;20431;-60
2022/11/15 07:15:19;;;;;;;5.87;4.80;;;4.60;99.90;;;;;;5001834;28;20431;-59
2022/11/15 07:17:45;;;;;;;5.30;4.03;;;4.70;99.90;;;;;;5003535;28;20959;-57
2022/11/15 07:20:13;;;;;;;5.70;4.37;;;4.70;99.90;;;;;;5005844;28;20454;-60
2022/11/15 07:22:42;;;;;;;5.27;4.60;;;4.80;99.90;;;;;;5004513;28;20238;-59
2022/11/15 07:25:08;;;;;;;4.87;4.07;;;4.80;99.90;;;;;;5007075;28;20450;-57
2022/11/15 07:27:34;;;;;;;4.43;4.03;;;4.90;99.90;;;;;;5003902;28;20942;-60
2022/11/15 07:30:00;;;;;;;4.70;4.20;;;5.00;99.90;;;;;;5013196;28;20474;-60
2022/11/15 07:32:26;;;;;;;6.70;4.00;;;5.00;99.90;;;;;;5009966;28;20439;-63
2022/11/15 07:34:52;;;;;;;5.03;4.53;;;5.10;99.90;;;;;;5009950;28;20471;-61
2022/11/15 07:37:18;;;;;;;5.60;4.70;;;5.10;99.90;;;;;;5010992;28;20180;-61
2022/11/15 07:39:44;;;;;;;6.50;5.30;;;5.10;99.90;;;;;;5010515;28;20184;-60
2022/11/15 07:44:54;;;;;;;8.00;5.90;;;5.10;99.90;;;;;;5012230;28;20438;-60
2022/11/15 07:47:20;;;;;;;7.20;5.27;;;5.10;99.90;;;;;;5009981;28;20435;-58
2022/11/15 07:49:46;;;;;;;9.27;5.80;;;5.10;99.90;;;;;;5012055;28;20185;-60
2022/11/15 07:52:12;;;;;;;8.70;5.60;;;5.10;99.90;;;;;;5008788;28;20446;-60
2022/11/15 07:54:38;;;;;;;15.23;6.57;;;5.20;99.90;;;;;;5004622;28;20970;-60
2022/11/15 07:57:05;;;;;;;11.43;5.57;;;5.20;99.90;;;;;;5009398;28;20423;-61
2022/11/15 07:59:31;;;;;;;8.53;5.70;;;5.20;99.90;;;;;;5004068;28;20922;-60
2022/11/15 08:01:57;;;;;;;7.10;5.67;;;5.20;99.90;;;;;;5011834;28;20500;-61
2022/11/15 08:04:22;;;;;;;14.00;5.53;;;5.30;99.90;;;;;;5025546;28;20188;-60
2022/11/15 08:06:48;;;;;;;6.90;5.10;;;5.30;99.90;;;;;;5010590;28;20176;-61
2022/11/15 08:09:13;;;;;;;7.60;5.10;;;5.30;99.90;;;;;;5008963;28;20180;-63
2022/11/15 08:11:39;;;;;;;6.40;4.80;;;5.40;99.90;;;;;;5010467;28;20268;-59
2022/11/15 08:14:05;;;;;;;6.30;4.73;;;5.40;99.90;;;;;;5005461;28;20207;-60
2022/11/15 08:16:30;;;;;;;6.80;4.50;;;5.50;99.90;;;;;;5009810;28;20172;-60
2022/11/15 08:18:56;;;;;;;7.20;5.60;;;5.50;99.90;;;;;;5004505;28;20230;-59
2022/11/15 08:21:22;;;;;;;10.80;6.50;;;5.60;99.90;;;;;;5004445;28;20675;-60
2022/11/15 08:23:48;;;;;;;10.13;6.07;;;5.60;99.90;;;;;;5002162;28;20177;-60
2022/11/15 08:26:14;;;;;;;9.10;6.40;;;5.60;99.90;;;;;;5021890;28;20431;-61
2022/11/15 08:28:40;;;;;;;12.03;6.70;;;5.60;99.90;;;;;;5005166;28;20187;-60
2022/11/15 08:31:06;;;;;;;11.90;6.73;;;5.70;99.90;;;;;;5002002;28;20991;-59
2022/11/15 08:33:32;;;;;;;11.33;6.57;;;5.70;99.90;;;;;;5003625;28;20193;-60
2022/11/15 08:36:00;;;;;;;8.93;6.33;;;5.70;99.90;;;;;;5001917;28;20770;-61
2022/11/15 08:38:28;;;;;;;8.80;5.53;;;5.70;99.90;;;;;;5003332;28;20586;-61
2022/11/15 08:41:03;;;;;;;9.10;5.50;;;5.80;99.90;;;;;;5001907;28;20953;-61
2022/11/15 08:43:29;;;;;;;9.50;5.23;;;5.80;99.90;;;;;;4999886;28;20435;-61
2022/11/15 08:45:58;;;;;;;10.70;5.70;;;5.90;99.90;;;;;;5000415;28;20434;-61
2022/11/15 08:48:24;;;;;;;26.83;7.53;;;5.90;99.90;;;;;;5002897;28;20518;-59
2022/11/15 08:50:54;;;;;;;6.20;4.37;;;6.00;99.90;;;;;;5002252;28;21331;-61
2022/11/15 08:53:21;;;;;;;8.80;4.50;;;6.10;99.90;;;;;;5004447;28;20962;-60
2022/11/15 08:55:46;;;;;;;5.00;3.90;;;6.10;99.90;;;;;;5000713;28;20414;-61
2022/11/15 08:58:12;;;;;;;7.77;4.60;;;6.20;99.90;;;;;;5002272;28;20428;-61
2022/11/15 09:00:38;;;;;;;10.07;4.90;;;6.30;99.90;;;;;;4999227;28;20199;-60
2022/11/15 09:03:05;;;;;;;5.80;4.33;;;6.40;99.90;;;;;;5003299;28;20184;-60
2022/11/15 09:05:31;;;;;;;4.00;3.63;;;6.50;99.90;;;;;;5000897;28;20185;-61
2022/11/15 09:07:56;;;;;;;5.43;4.47;;;6.60;99.90;;;;;;5001836;28;20442;-60
2022/11/15 09:10:22;;;;;;;6.13;4.00;;;6.60;99.90;;;;;;5004222;28;20212;-61
2022/11/15 09:12:48;;;;;;;9.63;4.07;;;6.70;99.90;;;;;;5003928;28;20892;-60
2022/11/15 09:15:15;;;;;;;6.10;3.90;;;6.80;99.90;;;;;;5002160;28;20287;-61
2022/11/15 09:17:41;;;;;;;3.80;3.13;;;6.90;99.90;;;;;;5002080;28;20781;-60
2022/11/15 09:20:07;;;;;;;4.20;3.77;;;6.90;99.90;;;;;;5006157;28;20462;-60
2022/11/15 09:22:33;;;;;;;5.03;4.17;;;7.00;99.90;;;;;;5001339;28;20195;-60
2022/11/15 09:24:59;;;;;;;6.87;4.50;;;7.10;99.90;;;;;;5003398;28;20453;-60
2022/11/15 09:27:28;;;;;;;8.30;5.37;;;7.10;99.90;;;;;;5001929;28;20473;-61
2022/11/15 09:29:54;;;;;;;6.93;5.67;;;7.20;99.90;;;;;;5001844;28;20300;-60
2022/11/15 09:32:20;;;;;;;18.33;7.80;;;7.30;99.90;;;;;;5003039;28;21022;-60
2022/11/15 09:34:46;;;;;;;10.37;7.53;;;7.40;99.90;;;;;;5003284;28;20200;-60
2022/11/15 09:37:12;;;;;;;13.23;8.23;;;7.40;99.90;;;;;;5003256;28;20200;-61
2022/11/15 09:39:38;;;;;;;13.67;8.70;;;7.50;99.90;;;;;;5003878;28;20681;-61
2022/11/15 09:42:22;;;;;;;17.60;9.63;;;7.60;99.90;;;;;;5001134;28;20462;-60
2022/11/15 09:45:13;;;;;;;15.70;9.70;;;7.70;99.90;;;;;;5001637;28;20172;-60
2022/11/15 09:48:03;;;;;;;10.47;6.97;;;7.80;99.90;;;;;;4971593;28;20431;-60
2022/11/15 09:50:46;;;;;;;15.17;7.97;;;7.90;99.90;;;;;;5001570;28;20473;-60
2022/11/15 09:53:25;;;;;;;12.90;7.30;;;8.00;99.90;;;;;;5003590;28;20428;-59
2022/11/15 09:56:20;;;;;;;10.70;6.87;;;8.10;99.90;;;;;;5001382;28;20412;-60
2022/11/15 09:59:32;;;;;;;11.13;6.30;;;8.20;99.90;;;;;;5001086;28;20419;-61
2022/11/15 10:02:29;;;;;;;17.83;7.20;;;8.30;99.90;;;;;;4996441;28;20433;-61
2022/11/15 10:04:56;;;;;;;12.17;7.50;;;8.30;99.90;;;;;;5013130;28;20438;-61
2022/11/15 10:07:41;;;;;;;12.60;6.80;;;8.40;99.90;;;;;;5011499;28;20482;-60
2022/11/15 10:10:22;;;;;;;10.07;7.30;;;8.40;99.90;;;;;;5012200;28;20453;-59
2022/11/15 10:12:51;;;;;;;10.00;7.67;;;8.40;99.90;;;;;;5009310;28;20442;-61
2022/11/15 10:15:22;;;;;;;14.73;8.37;;;8.50;99.90;;;;;;5013389;28;20458;-61
2022/11/15 10:18:29;;;;;;;14.30;9.53;;;8.50;99.90;;;;;;5008526;28;20443;-60
2022/11/15 10:20:59;;;;;;;17.90;9.10;;;8.50;99.90;;;;;;4988048;28;20923;-60
2022/11/15 10:23:28;;;;;;;16.93;10.07;;;8.50;99.90;;;;;;4991544;28;20439;-59
2022/11/15 10:26:00;;;;;;;14.23;9.40;;;8.50;99.90;;;;;;4993428;28;20434;-60
2022/11/15 10:28:30;;;;;;;25.20;9.77;;;8.60;99.90;;;;;;5008882;28;20449;-60
2022/11/15 10:30:58;;;;;;;19.00;10.50;;;8.60;99.90;;;;;;5008759;28;20458;-60
2022/11/15 10:33:26;;;;;;;16.63;11.13;;;8.70;99.90;;;;;;5004573;28;20509;-60
2022/11/15 10:36:13;;;;;;;17.37;10.17;;;8.80;99.90;;;;;;5005905;28;21013;-60
2022/11/15 10:38:50;;;;;;;19.03;10.27;;;8.80;99.90;;;;;;5007235;28;20957;-60
2022/11/15 10:41:19;;;;;;;18.10;10.40;;;8.90;99.90;;;;;;5012908;28;20957;-63
2022/11/15 10:43:45;;;;;;;20.87;10.37;;;9.00;99.90;;;;;;5013545;28;20431;-60
2022/11/15 10:46:23;;;;;;;15.40;10.30;;;9.00;99.90;;;;;;5011863;28;20447;-62
2022/11/15 10:48:49;;;;;;;16.13;9.83;;;9.00;99.90;;;;;;5010862;28;20435;-60
2022/11/15 10:51:28;;;;;;;18.47;9.73;;;9.10;99.90;;;;;;5021633;28;20473;-60
2022/11/15 10:53:57;;;;;;;17.20;9.77;;;9.20;99.90;;;;;;5014750;28;20459;-60
2022/11/15 10:56:26;;;;;;;22.57;10.00;;;9.20;99.90;;;;;;5006582;28;20439;-60
2022/11/15 10:58:55;;;;;;;18.80;10.20;;;9.20;99.90;;;;;;5012379;28;20539;-60
2022/11/15 11:01:25;;;;;;;15.13;9.53;;;9.30;99.90;;;;;;5025383;28;20474;-60
2022/11/15 11:04:06;;;;;;;14.27;9.47;;;9.30;99.90;;;;;;5033782;22;20500;-60
2022/11/15 11:06:55;;;;;;;16.20;10.53;;;9.30;99.90;;;;;;5052164;28;20440;-60
2022/11/15 11:09:22;;;;;;;23.00;11.93;;;9.30;99.90;;;;;;5048423;28;20417;-61
2022/11/15 11:11:50;;;;;;;22.90;13.53;;;9.40;99.90;;;;;;5048989;28;20430;-61
2022/11/15 11:14:30;;;;;;;25.63;14.10;;;9.40;99.90;;;;;;5049198;28;21525;-60
2022/11/15 11:17:17;;;;;;;19.33;11.97;;;9.40;99.90;;;;;;5046365;28;20520;-60
2022/11/15 11:20:13;;;;;;;18.60;11.17;;;9.50;99.90;;;;;;5043270;28;20960;-61
2022/11/15 11:23:17;;;;;;;17.27;11.07;;;9.60;99.90;;;;;;5044190;28;20519;-60
2022/11/15 11:26:07;;;;;;;19.17;12.70;;;9.60;99.90;;;;;;4972159;28;20963;-60
2022/11/15 11:28:38;;;;;;;19.87;13.13;;;9.70;99.90;;;;;;4954427;28;20444;-60
2022/11/15 11:31:16;;;;;;;20.00;13.53;;;9.70;99.90;;;;;;5023966;28;20433;-61
2022/11/15 11:33:44;;;;;;;19.93;11.60;;;9.70;99.90;;;;;;5046959;28;20460;-62
2022/11/15 11:36:42;;;;;;;23.43;11.63;;;9.80;99.90;;;;;;5045570;28;20462;-61
2022/11/15 11:39:26;;;;;;;21.80;10.10;;;9.80;99.90;;;;;;5022789;28;20506;-60
2022/11/15 11:42:04;;;;;;;15.97;10.40;;;9.90;99.90;;;;;;5046767;28;20956;-60
2022/11/15 11:44:48;;;;;;;16.47;10.37;;;9.90;99.90;;;;;;5043706;28;20993;-60
2022/11/15 11:47:36;;;;;;;15.37;9.23;;;10.00;99.90;;;;;;5043973;28;20499;-60
2022/11/15 11:50:20;;;;;;;15.80;10.20;;;10.00;99.90;;;;;;5044832;28;20434;-61
2022/11/15 11:53:12;;;;;;;19.10;9.27;;;10.00;99.90;;;;;;5044155;28;20421;-61
2022/11/15 11:55:52;;;;;;;14.80;9.43;;;10.00;99.90;;;;;;5041310;28;20505;-61
2022/11/15 11:58:41;;;;;;;13.83;8.70;;;10.00;99.90;;;;;;5042693;28;21007;-61
2022/11/15 12:01:31;;;;;;;17.90;9.33;;;10.00;99.90;;;;;;5046472;28;20985;-61
2022/11/15 12:04:15;;;;;;;16.40;10.63;;;10.00;99.90;;;;;;5044345;28;20441;-61
2022/11/15 12:06:56;;;;;;;15.80;11.80;;;10.00;99.90;;;;;;5036525;28;20467;-62
2022/11/15 12:10:00;;;;;;;18.00;10.87;;;10.00;99.90;;;;;;5041734;28;20438;-62
2022/11/15 12:12:44;;;;;;;15.20;10.43;;;10.00;99.90;;;;;;5046115;28;20517;-62
2022/11/15 12:15:18;;;;;;;25.63;11.77;;;10.00;99.90;;;;;;5039016;28;20492;-60
2022/11/15 12:17:45;;;;;;;23.80;11.20;;;10.00;99.90;;;;;;5056461;28;20488;-60
2022/11/15 12:20:21;;;;;;;18.07;11.10;;;10.10;99.90;;;;;;5039659;28;20421;-60
2022/11/15 12:22:59;;;;;;;23.23;11.23;;;10.10;99.90;;;;;;5037429;28;20430;-60
2022/11/15 12:25:50;;;;;;;12.37;8.60;;;10.10;99.90;;;;;;5042713;28;20468;-61
2022/11/15 12:28:25;;;;;;;17.57;9.00;;;10.10;99.90;;;;;;5041418;28;20967;-60
2022/11/15 12:30:53;;;;;;;19.47;10.10;;;10.10;99.90;;;;;;5037562;28;20437;-61
2022/11/15 12:33:49;;;;;;;20.43;8.63;;;10.10;99.90;;;;;;5043944;28;20536;-60
2022/11/15 12:36:20;;;;;;;17.73;8.80;;;10.10;99.90;;;;;;5027388;28;20951;-60
2022/11/15 12:38:59;;;;;;;17.43;8.73;;;10.10;99.90;;;;;;5040888;28;20429;-60
2022/11/15 12:41:36;;;;;;;12.57;8.60;;;10.10;99.90;;;;;;5047371;28;20417;-60
2022/11/15 12:44:03;;;;;;;15.90;8.63;;;10.10;99.90;;;;;;5034967;28;20470;-60
2022/11/15 12:46:29;;;;;;;18.30;9.63;;;10.10;99.90;;;;;;5039990;28;20436;-60
2022/11/15 12:49:42;;;;;;;20.00;10.37;;;10.20;99.90;;;;;;5047244;28;20429;-60
2022/11/15 12:52:09;;;;;;;16.40;10.00;;;10.30;99.90;;;;;;5036534;28;20187;-60
2022/11/15 12:54:40;;;;;;;13.30;10.17;;;10.40;99.90;;;;;;5042177;28;20848;-62
2022/11/15 12:57:06;;;;;;;20.40;11.30;;;10.40;99.90;;;;;;5044934;28;20546;-61
2022/11/15 12:59:49;;;;;;;17.60;10.37;;;10.40;99.90;;;;;;5048249;28;20441;-61
2022/11/15 13:02:18;;;;;;;17.77;10.83;;;10.40;99.90;;;;;;5045371;28;20242;-62
2022/11/15 13:04:44;;;;;;;15.50;9.83;;;10.50;99.90;;;;;;5049909;28;20496;-62
2022/11/15 13:07:35;;;;;;;18.80;10.50;;;10.40;99.90;;;;;;5041350;28;20462;-63
2022/11/15 13:10:10;;;;;;;18.40;9.80;;;10.40;99.90;;;;;;5053325;28;20210;-62
2022/11/15 13:12:38;;;;;;;15.30;10.40;;;10.40;99.90;;;;;;5049210;28;20417;-62
2022/11/15 13:15:13;;;;;;;17.67;10.67;;;10.30;99.90;;;;;;5045555;28;20923;-62
2022/11/15 13:17:54;;;;;;;17.43;11.43;;;10.30;99.90;;;;;;5044085;28;20444;-62
2022/11/15 13:20:29;;;;;;;21.67;11.73;;;10.30;99.90;;;;;;5050182;28;20402;-62
2022/11/15 13:23:07;;;;;;;20.30;12.40;;;10.30;99.90;;;;;;5046485;28;20804;-64
2022/11/15 13:25:38;;;;;;;22.27;11.43;;;10.30;99.90;;;;;;5030248;28;20426;-62
2022/11/15 13:28:16;;;;;;;18.80;11.73;;;10.30;99.90;;;;;;5039793;28;20528;-63